sensor_id;sensor_type;location;lat;lon;timestamp;pressure;altitude;pressure_sealevel;temperature;humidity
9189;BME280;34313;50.780;6.084;2023-06-26T00:01:10;99248.38;;;20.70;62.37
9189;BME280;34313;50.780;6.084;2023-06-26T00:03:36;99248.03;;;20.65;62.53
9189;BME280;34313;50.780;6.084;2023-06-26T00:06:01;99248.66;;;20.58;62.59
9189;BME280;34313;50.780;6.084;2023-06-26T00:08:27;99253.31;;;20.56;62.90
9189;BME280;34313;50.780;6.084;2023-06-26T00:10:53;99248.88;;;20.65;61.85
9189;BME280;34313;50.780;6.084;2023-06-26T00:13:18;99250.06;;;20.71;62.53
9189;BME280;34313;50.780;6.084;2023-06-26T00:15:44;99244.06;;;20.77;61.67
9189;BME280;34313;50.780;6.084;2023-06-26T00:18:10;99243.91;;;20.78;61.42
9189;BME280;34313;50.780;6.084;2023-06-26T00:20:36;99246.06;;;20.75;61.85
9189;BME280;34313;50.780;6.084;2023-06-26T00:23:01;99241.38;;;20.69;62.03
9189;BME280;34313;50.780;6.084;2023-06-26T00:25:29;99238.84;;;20.67;62.37
9189;BME280;34313;50.780;6.084;2023-06-26T00:27:54;99243.69;;;20.64;62.59
9189;BME280;34313;50.780;6.084;2023-06-26T00:30:19;99240.84;;;20.73;60.78
9189;BME280;34313;50.780;6.084;2023-06-26T00:32:45;99239.88;;;20.83;59.97
9189;BME280;34313;50.780;6.084;2023-06-26T00:35:10;99237.19;;;20.83;60.59
9189;BME280;34313;50.780;6.084;2023-06-26T00:37:35;99242.91;;;20.88;59.59
9189;BME280;34313;50.780;6.084;2023-06-26T00:40:01;99247.78;;;20.92;59.84
9189;BME280;34313;50.780;6.084;2023-06-26T00:42:26;99236.25;;;20.92;59.26
9189;BME280;34313;50.780;6.084;2023-06-26T00:44:51;99242.31;;;21.02;58.80
9189;BME280;34313;50.780;6.084;2023-06-26T00:47:17;99255.59;;;21.20;58.02
9189;BME280;34313;50.780;6.084;2023-06-26T00:49:43;99255.09;;;21.33;57.00
9189;BME280;34313;50.780;6.084;2023-06-26T00:52:08;99260.81;;;21.38;56.48
9189;BME280;34313;50.780;6.084;2023-06-26T00:54:34;99263.03;;;21.59;55.42
9189;BME280;34313;50.780;6.084;2023-06-26T00:56:59;99251.31;;;21.77;54.62
9189;BME280;34313;50.780;6.084;2023-06-26T00:59:24;99261.22;;;21.93;54.04
9189;BME280;34313;50.780;6.084;2023-06-26T01:01:50;99254.69;;;21.95;54.16
9189;BME280;34313;50.780;6.084;2023-06-26T01:04:15;99273.59;;;22.10;53.57
9189;BME280;34313;50.780;6.084;2023-06-26T01:06:46;99270.59;;;22.13;53.39
9189;BME280;34313;50.780;6.084;2023-06-26T01:09:17;99263.38;;;22.14;53.19
9189;BME280;34313;50.780;6.084;2023-06-26T01:11:43;99267.41;;;22.18;53.49
9189;BME280;34313;50.780;6.084;2023-06-26T01:14:09;99267.41;;;22.09;53.41
9189;BME280;34313;50.780;6.084;2023-06-26T01:16:35;99263.38;;;22.14;53.55
9189;BME280;34313;50.780;6.084;2023-06-26T01:19:00;99261.34;;;22.24;53.15
9189;BME280;34313;50.780;6.084;2023-06-26T01:21:26;99262.69;;;22.36;52.97
9189;BME280;34313;50.780;6.084;2023-06-26T01:24:16;99263.69;;;22.43;53.20
9189;BME280;34313;50.780;6.084;2023-06-26T01:26:47;99271.56;;;22.45;53.30
9189;BME280;34313;50.780;6.084;2023-06-26T01:29:15;99257.81;;;22.40;53.45
9189;BME280;34313;50.780;6.084;2023-06-26T01:31:40;99277.44;;;22.49;53.79
9189;BME280;34313;50.780;6.084;2023-06-26T01:34:09;99253.75;;;22.52;53.63
9189;BME280;34313;50.780;6.084;2023-06-26T01:36:35;99263.19;;;22.48;54.07
9189;BME280;34313;50.780;6.084;2023-06-26T01:39:02;99261.97;;;22.51;54.42
9189;BME280;34313;50.780;6.084;2023-06-26T01:41:27;99258.78;;;22.55;54.69
9189;BME280;34313;50.780;6.084;2023-06-26T01:46:44;99272.56;;;22.52;55.81
9189;BME280;34313;50.780;6.084;2023-06-26T01:52:40;99283.00;;;22.39;56.98
9189;BME280;34313;50.780;6.084;2023-06-26T01:55:24;99281.31;;;22.38;57.34
9189;BME280;34313;50.780;6.084;2023-06-26T01:57:56;99291.06;;;22.31;57.69
9189;BME280;34313;50.780;6.084;2023-06-26T02:00:23;99292.06;;;22.30;57.97
9189;BME280;34313;50.780;6.084;2023-06-26T02:02:49;99282.81;;;22.24;58.38
9189;BME280;34313;50.780;6.084;2023-06-26T02:05:14;99301.16;;;22.28;58.77
9189;BME280;34313;50.780;6.084;2023-06-26T02:07:40;99305.81;;;22.26;58.93
9189;BME280;34313;50.780;6.084;2023-06-26T02:10:05;99297.94;;;22.25;59.01
9189;BME280;34313;50.780;6.084;2023-06-26T02:12:31;99299.78;;;22.16;59.51
9189;BME280;34313;50.780;6.084;2023-06-26T02:14:56;99299.78;;;22.08;59.95
9189;BME280;34313;50.780;6.084;2023-06-26T02:17:21;99303.66;;;22.05;60.59
9189;BME280;34313;50.780;6.084;2023-06-26T02:19:47;99311.19;;;22.02;61.10
9189;BME280;34313;50.780;6.084;2023-06-26T02:22:16;99306.81;;;21.93;61.50
9189;BME280;34313;50.780;6.084;2023-06-26T02:24:44;99311.69;;;21.89;61.99
9189;BME280;34313;50.780;6.084;2023-06-26T02:27:10;99310.19;;;21.78;62.46
9189;BME280;34313;50.780;6.084;2023-06-26T02:29:35;99313.19;;;21.75;63.32
9189;BME280;34313;50.780;6.084;2023-06-26T02:32:01;99312.69;;;21.71;63.60
9189;BME280;34313;50.780;6.084;2023-06-26T02:34:26;99314.19;;;21.66;64.15
9189;BME280;34313;50.780;6.084;2023-06-26T02:36:52;99319.72;;;21.64;64.35
9189;BME280;34313;50.780;6.084;2023-06-26T02:39:20;99322.03;;;21.59;64.70
9189;BME280;34313;50.780;6.084;2023-06-26T02:41:46;99326.91;;;21.56;65.20
9189;BME280;34313;50.780;6.084;2023-06-26T02:44:11;99330.25;;;21.49;65.76
9189;BME280;34313;50.780;6.084;2023-06-26T02:46:38;99340.59;;;21.44;65.92
9189;BME280;34313;50.780;6.084;2023-06-26T02:49:03;99341.41;;;21.37;66.41
9189;BME280;34313;50.780;6.084;2023-06-26T02:51:28;99336.34;;;21.33;66.73
9189;BME280;34313;50.780;6.084;2023-06-26T02:53:54;99330.81;;;21.27;66.52
9189;BME280;34313;50.780;6.084;2023-06-26T02:56:19;99342.19;;;21.21;65.95
9189;BME280;34313;50.780;6.084;2023-06-26T02:58:44;99339.81;;;21.18;65.87
9189;BME280;34313;50.780;6.084;2023-06-26T03:01:10;99344.66;;;21.14;65.32
9189;BME280;34313;50.780;6.084;2023-06-26T03:03:35;99343.78;;;21.05;65.46
9189;BME280;34313;50.780;6.084;2023-06-26T03:06:06;99340.59;;;21.02;64.95
9189;BME280;34313;50.780;6.084;2023-06-26T03:08:32;99346.44;;;20.97;64.67
9189;BME280;34313;50.780;6.084;2023-06-26T03:10:57;99348.72;;;20.84;64.88
9189;BME280;34313;50.780;6.084;2023-06-26T03:13:23;99349.38;;;20.77;64.64
9189;BME280;34313;50.780;6.084;2023-06-26T03:15:48;99357.56;;;20.76;64.87
9189;BME280;34313;50.780;6.084;2023-06-26T03:18:13;99359.00;;;20.70;64.73
9189;BME280;34313;50.780;6.084;2023-06-26T03:20:39;99355.28;;;20.63;65.42
9189;BME280;34313;50.780;6.084;2023-06-26T03:23:04;99355.91;;;20.57;65.62
9189;BME280;34313;50.780;6.084;2023-06-26T03:25:29;99356.72;;;20.57;65.33
9189;BME280;34313;50.780;6.084;2023-06-26T03:27:55;99360.56;;;20.55;65.47
9189;BME280;34313;50.780;6.084;2023-06-26T03:30:20;99367.22;;;20.51;65.51
9189;BME280;34313;50.780;6.084;2023-06-26T03:32:45;99362.00;;;20.49;66.14
9189;BME280;34313;50.780;6.084;2023-06-26T03:35:11;99364.38;;;20.52;66.13
9189;BME280;34313;50.780;6.084;2023-06-26T03:37:36;99366.53;;;20.49;66.49
9189;BME280;34313;50.780;6.084;2023-06-26T03:40:01;99371.06;;;20.48;66.68
9189;BME280;34313;50.780;6.084;2023-06-26T03:42:28;99366.69;;;20.47;66.50
9189;BME280;34313;50.780;6.084;2023-06-26T03:44:53;99365.78;;;20.56;66.16
9189;BME280;34313;50.780;6.084;2023-06-26T03:47:18;99379.94;;;20.49;66.50
9189;BME280;34313;50.780;6.084;2023-06-26T03:49:44;99374.56;;;20.49;66.14
9189;BME280;34313;50.780;6.084;2023-06-26T03:52:09;99378.25;;;20.48;65.85
9189;BME280;34313;50.780;6.084;2023-06-26T03:54:34;99377.63;;;20.54;65.44
9189;BME280;34313;50.780;6.084;2023-06-26T03:57:00;99392.22;;;20.59;65.30
9189;BME280;34313;50.780;6.084;2023-06-26T03:59:25;99390.47;;;20.68;65.18
9189;BME280;34313;50.780;6.084;2023-06-26T04:01:50;99394.53;;;20.72;64.85
9189;BME280;34313;50.780;6.084;2023-06-26T04:04:15;99388.00;;;20.75;64.84
9189;BME280;34313;50.780;6.084;2023-06-26T04:06:41;99395.06;;;20.84;64.48
9189;BME280;34313;50.780;6.084;2023-06-26T04:09:06;99401.31;;;20.93;64.53
9189;BME280;34313;50.780;6.084;2023-06-26T04:11:31;99402.56;;;20.99;63.95
9189;BME280;34313;50.780;6.084;2023-06-26T04:13:57;99404.38;;;20.98;64.21
9189;BME280;34313;50.780;6.084;2023-06-26T04:16:22;99396.03;;;21.01;63.96
9189;BME280;34313;50.780;6.084;2023-06-26T04:18:51;99404.88;;;20.93;64.09
9189;BME280;34313;50.780;6.084;2023-06-26T04:21:17;99404.88;;;20.93;64.11
9189;BME280;34313;50.780;6.084;2023-06-26T04:23:43;99415.16;;;21.06;63.88
9189;BME280;34313;50.780;6.084;2023-06-26T04:26:08;99409.63;;;21.08;63.51
9189;BME280;34313;50.780;6.084;2023-06-26T04:28:34;99411.34;;;21.17;63.33
9189;BME280;34313;50.780;6.084;2023-06-26T04:31:01;99410.94;;;21.38;62.81
9189;BME280;34313;50.780;6.084;2023-06-26T04:33:27;99412.34;;;21.50;62.27
9189;BME280;34313;50.780;6.084;2023-06-26T04:35:53;99407.38;;;21.64;61.70
9189;BME280;34313;50.780;6.084;2023-06-26T04:38:19;99409.06;;;21.73;61.38
9189;BME280;34313;50.780;6.084;2023-06-26T04:40:45;99417.81;;;21.83;61.08
9189;BME280;34313;50.780;6.084;2023-06-26T04:43:10;99418.69;;;21.92;60.97
9189;BME280;34313;50.780;6.084;2023-06-26T04:45:36;99414.66;;;21.96;60.65
9189;BME280;34313;50.780;6.084;2023-06-26T04:48:02;99427.25;;;22.12;60.24
9189;BME280;34313;50.780;6.084;2023-06-26T04:50:27;99421.94;;;22.37;59.65
9189;BME280;34313;50.780;6.084;2023-06-26T04:52:54;99424.28;;;22.64;58.56
9189;BME280;34313;50.780;6.084;2023-06-26T04:55:20;99433.31;;;22.96;57.79
9189;BME280;34313;50.780;6.084;2023-06-26T04:57:46;99435.97;;;23.21;56.98
9189;BME280;34313;50.780;6.084;2023-06-26T05:00:12;99428.13;;;23.90;54.81
9189;BME280;34313;50.780;6.084;2023-06-26T05:02:38;99429.66;;;24.77;52.52
9189;BME280;34313;50.780;6.084;2023-06-26T05:05:03;99435.19;;;26.31;48.94
9189;BME280;34313;50.780;6.084;2023-06-26T05:07:29;99434.03;;;28.02;44.39
9189;BME280;34313;50.780;6.084;2023-06-26T05:09:54;99438.06;;;29.78;41.06
9189;BME280;34313;50.780;6.084;2023-06-26T05:12:20;99431.22;;;31.15;37.84
9189;BME280;34313;50.780;6.084;2023-06-26T05:14:45;99437.81;;;31.44;37.01
9189;BME280;34313;50.780;6.084;2023-06-26T05:17:13;99442.88;;;32.26;35.58
9189;BME280;34313;50.780;6.084;2023-06-26T05:19:38;99443.09;;;32.78;34.43
9189;BME280;34313;50.780;6.084;2023-06-26T05:22:04;99454.63;;;34.09;32.84
9189;BME280;34313;50.780;6.084;2023-06-26T05:24:33;99462.78;;;35.39;30.56
9189;BME280;34313;50.780;6.084;2023-06-26T05:27:00;99463.81;;;35.55;30.16
9189;BME280;34313;50.780;6.084;2023-06-26T05:29:26;99470.09;;;35.51;30.17
9189;BME280;34313;50.780;6.084;2023-06-26T05:31:52;99471.75;;;33.87;32.25
9189;BME280;34313;50.780;6.084;2023-06-26T05:34:19;99475.06;;;33.89;32.24
9189;BME280;34313;50.780;6.084;2023-06-26T05:36:47;99474.38;;;34.40;31.55
9189;BME280;34313;50.780;6.084;2023-06-26T05:39:14;99473.47;;;33.94;32.14
9189;BME280;34313;50.780;6.084;2023-06-26T05:41:39;99476.22;;;32.52;34.41
9189;BME280;34313;50.780;6.084;2023-06-26T05:44:05;99466.56;;;32.26;34.56
9189;BME280;34313;50.780;6.084;2023-06-26T05:46:32;99474.34;;;31.36;36.20
9189;BME280;34313;50.780;6.084;2023-06-26T05:48:58;99475.00;;;30.88;37.13
9189;BME280;34313;50.780;6.084;2023-06-26T05:51:23;99470.97;;;30.97;36.94
9189;BME280;34313;50.780;6.084;2023-06-26T05:53:49;99467.66;;;32.78;34.24
9189;BME280;34313;50.780;6.084;2023-06-26T05:56:15;99470.25;;;34.71;31.57
9189;BME280;34313;50.780;6.084;2023-06-26T05:58:40;99465.53;;;36.28;28.82
9189;BME280;34313;50.780;6.084;2023-06-26T06:01:07;99466.38;;;37.41;27.37
9189;BME280;34313;50.780;6.084;2023-06-26T06:03:33;99474.56;;;36.88;27.75
9189;BME280;34313;50.780;6.084;2023-06-26T06:05:59;99483.84;;;34.49;30.92
9189;BME280;34313;50.780;6.084;2023-06-26T06:08:24;99481.38;;;32.18;34.52
9189;BME280;34313;50.780;6.084;2023-06-26T06:10:50;99477.84;;;30.11;37.93
9189;BME280;34313;50.780;6.084;2023-06-26T06:13:15;99486.06;;;28.72;40.87
9189;BME280;34313;50.780;6.084;2023-06-26T06:15:41;99484.50;;;27.33;43.77
9189;BME280;34313;50.780;6.084;2023-06-26T06:18:07;99488.63;;;26.72;45.65
9189;BME280;34313;50.780;6.084;2023-06-26T06:20:32;99490.38;;;25.71;47.82
9189;BME280;34313;50.780;6.084;2023-06-26T06:22:57;99498.38;;;25.34;49.20
9189;BME280;34313;50.780;6.084;2023-06-26T06:25:23;99493.69;;;24.75;50.82
9189;BME280;34313;50.780;6.084;2023-06-26T06:27:48;99489.81;;;24.78;50.85
9189;BME280;34313;50.780;6.084;2023-06-26T06:30:13;99492.72;;;25.44;49.46
9189;BME280;34313;50.780;6.084;2023-06-26T06:32:39;99507.84;;;26.04;48.06
9189;BME280;34313;50.780;6.084;2023-06-26T06:35:04;99504.75;;;26.87;46.36
9189;BME280;34313;50.780;6.084;2023-06-26T06:37:35;99517.50;;;29.60;40.54
9189;BME280;34313;50.780;6.084;2023-06-26T06:40:00;99524.78;;;31.82;36.32
9189;BME280;34313;50.780;6.084;2023-06-26T06:42:25;99528.88;;;32.71;34.63
9189;BME280;34313;50.780;6.084;2023-06-26T06:44:50;99526.31;;;33.11;33.65
9189;BME280;34313;50.780;6.084;2023-06-26T06:47:16;99529.91;;;33.24;33.20
9189;BME280;34313;50.780;6.084;2023-06-26T06:49:41;99540.03;;;32.81;33.66
9189;BME280;34313;50.780;6.084;2023-06-26T06:52:06;99545.56;;;31.15;36.38
9189;BME280;34313;50.780;6.084;2023-06-26T06:54:50;99551.06;;;30.44;37.55
9189;BME280;34313;50.780;6.084;2023-06-26T06:57:16;99556.25;;;30.07;38.44
9189;BME280;34313;50.780;6.084;2023-06-26T06:59:41;99543.50;;;29.16;39.64
9189;BME280;34313;50.780;6.084;2023-06-26T07:02:07;99556.97;;;29.89;38.97
9189;BME280;34313;50.780;6.084;2023-06-26T07:04:32;99546.78;;;30.94;37.24
9189;BME280;34313;50.780;6.084;2023-06-26T07:06:57;99548.56;;;31.75;35.52
9189;BME280;34313;50.780;6.084;2023-06-26T07:09:23;99544.78;;;31.95;35.27
9189;BME280;34313;50.780;6.084;2023-06-26T07:11:48;99541.41;;;34.25;31.82
9189;BME280;34313;50.780;6.084;2023-06-26T07:14:13;99546.56;;;34.10;31.02
9189;BME280;34313;50.780;6.084;2023-06-26T07:16:38;99553.13;;;34.83;30.07
9189;BME280;34313;50.780;6.084;2023-06-26T07:19:04;99556.66;;;34.21;31.25
9189;BME280;34313;50.780;6.084;2023-06-26T07:21:29;99557.56;;;33.27;31.95
9189;BME280;34313;50.780;6.084;2023-06-26T07:23:54;99559.06;;;33.11;32.64
9189;BME280;34313;50.780;6.084;2023-06-26T07:26:20;99558.81;;;32.29;33.77
9189;BME280;34313;50.780;6.084;2023-06-26T07:28:47;99555.59;;;31.39;35.29
9189;BME280;34313;50.780;6.084;2023-06-26T07:55:46;99588.94;;;28.94;39.49
9189;BME280;34313;50.780;6.084;2023-06-26T07:58:11;99603.81;;;29.25;38.57
9189;BME280;34313;50.780;6.084;2023-06-26T08:05:31;99604.69;;;37.52;26.20
9189;BME280;34313;50.780;6.084;2023-06-26T08:45:29;99582.94;;;40.39;20.46
9189;BME280;34313;50.780;6.084;2023-06-26T08:48:01;99610.88;;;41.17;20.17
9189;BME280;34313;50.780;6.084;2023-06-26T08:50:33;99612.25;;;42.45;18.67
9189;BME280;34313;50.780;6.084;2023-06-26T08:55:41;99619.56;;;45.15;16.35
9189;BME280;34313;50.780;6.084;2023-06-26T08:58:08;99620.72;;;45.45;16.26
9189;BME280;34313;50.780;6.084;2023-06-26T09:00:34;99606.81;;;43.11;17.69
9189;BME280;34313;50.780;6.084;2023-06-26T09:03:00;99604.31;;;42.96;18.13
9189;BME280;34313;50.780;6.084;2023-06-26T09:05:27;99613.16;;;40.15;20.56
9189;BME280;34313;50.780;6.084;2023-06-26T09:07:52;99618.09;;;40.18;20.41
9189;BME280;34313;50.780;6.084;2023-06-26T09:10:21;99608.44;;;40.21;20.55
9189;BME280;34313;50.780;6.084;2023-06-26T09:12:46;99604.50;;;40.32;20.14
9189;BME280;34313;50.780;6.084;2023-06-26T09:15:14;99617.59;;;40.01;20.60
9189;BME280;34313;50.780;6.084;2023-06-26T09:17:40;99616.34;;;39.21;21.51
9189;BME280;34313;50.780;6.084;2023-06-26T09:20:07;99622.09;;;38.94;21.58
9189;BME280;34313;50.780;6.084;2023-06-26T09:22:35;99626.03;;;38.19;22.38
9189;BME280;34313;50.780;6.084;2023-06-26T09:25:02;99626.00;;;36.47;24.11
9189;BME280;34313;50.780;6.084;2023-06-26T09:27:27;99641.22;;;37.15;23.27
9189;BME280;34313;50.780;6.084;2023-06-26T09:29:58;99625.06;;;35.75;24.95
9189;BME280;34313;50.780;6.084;2023-06-26T09:32:24;99633.69;;;34.71;26.44
9189;BME280;34313;50.780;6.084;2023-06-26T09:34:52;99633.72;;;34.88;26.09
9189;BME280;34313;50.780;6.084;2023-06-26T09:37:17;99642.41;;;33.80;27.44
9189;BME280;34313;50.780;6.084;2023-06-26T09:39:42;99637.75;;;33.57;27.70
9189;BME280;34313;50.780;6.084;2023-06-26T09:42:08;99632.53;;;34.55;27.03
9189;BME280;34313;50.780;6.084;2023-06-26T09:44:34;99627.97;;;34.60;26.63
9189;BME280;34313;50.780;6.084;2023-06-26T09:47:01;99626.97;;;33.38;28.04
9189;BME280;34313;50.780;6.084;2023-06-26T09:49:29;99638.66;;;32.85;28.91
9189;BME280;34313;50.780;6.084;2023-06-26T09:51:55;99645.84;;;33.09;28.76
9189;BME280;34313;50.780;6.084;2023-06-26T09:54:21;99655.22;;;32.71;29.29
9189;BME280;34313;50.780;6.084;2023-06-26T09:56:46;99657.69;;;32.06;30.16
9189;BME280;34313;50.780;6.084;2023-06-26T09:59:12;99645.59;;;31.26;31.05
9189;BME280;34313;50.780;6.084;2023-06-26T10:01:43;99657.84;;;32.11;30.32
9189;BME280;34313;50.780;6.084;2023-06-26T10:04:10;99661.59;;;31.66;30.27
9189;BME280;34313;50.780;6.084;2023-06-26T10:06:37;99657.56;;;31.75;30.08
9189;BME280;34313;50.780;6.084;2023-06-26T10:09:04;99655.22;;;31.79;30.11
9189;BME280;34313;50.780;6.084;2023-06-26T10:11:37;99662.22;;;32.30;29.42
9189;BME280;34313;50.780;6.084;2023-06-26T10:14:07;99658.88;;;31.91;30.01
9189;BME280;34313;50.780;6.084;2023-06-26T10:16:32;99668.16;;;31.33;30.25
9189;BME280;34313;50.780;6.084;2023-06-26T10:19:03;99672.66;;;30.82;30.61
9189;BME280;34313;50.780;6.084;2023-06-26T10:21:31;99670.97;;;30.36;31.31
9189;BME280;34313;50.780;6.084;2023-06-26T10:23:59;99661.50;;;31.22;30.27
9189;BME280;34313;50.780;6.084;2023-06-26T10:26:26;99669.25;;;31.25;30.48
9189;BME280;34313;50.780;6.084;2023-06-26T10:28:53;99661.59;;;30.77;30.33
9189;BME280;34313;50.780;6.084;2023-06-26T10:31:22;99661.19;;;30.73;30.39
9189;BME280;34313;50.780;6.084;2023-06-26T10:33:49;99639.47;;;30.60;30.86
9189;BME280;34313;50.780;6.084;2023-06-26T10:36:15;99656.19;;;30.64;31.03
9189;BME280;34313;50.780;6.084;2023-06-26T10:39:20;99663.50;;;30.70;30.35
9189;BME280;34313;50.780;6.084;2023-06-26T10:41:45;99667.00;;;30.25;31.07
9189;BME280;34313;50.780;6.084;2023-06-26T10:44:12;99667.09;;;29.72;31.08
9189;BME280;34313;50.780;6.084;2023-06-26T10:46:54;99673.75;;;29.36;30.28
9189;BME280;34313;50.780;6.084;2023-06-26T10:49:20;99670.63;;;29.32;30.78
9189;BME280;34313;50.780;6.084;2023-06-26T10:51:50;99677.09;;;29.38;31.08
9189;BME280;34313;50.780;6.084;2023-06-26T10:54:19;99680.69;;;29.38;31.92
9189;BME280;34313;50.780;6.084;2023-06-26T10:56:46;99677.34;;;28.68;32.29
9189;BME280;34313;50.780;6.084;2023-06-26T10:59:19;99692.38;;;28.29;32.87
9189;BME280;34313;50.780;6.084;2023-06-26T11:01:46;99684.72;;;28.39;33.00
9189;BME280;34313;50.780;6.084;2023-06-26T11:04:35;99677.94;;;28.57;33.05
9189;BME280;34313;50.780;6.084;2023-06-26T11:10:08;99687.47;;;29.01;32.61
9189;BME280;34313;50.780;6.084;2023-06-26T11:15:00;99687.25;;;28.96;32.25
9189;BME280;34313;50.780;6.084;2023-06-26T11:17:26;99668.19;;;27.92;32.81
9189;BME280;34313;50.780;6.084;2023-06-26T11:19:52;99687.09;;;28.14;33.56
9189;BME280;34313;50.780;6.084;2023-06-26T11:22:18;99683.06;;;28.03;32.97
9189;BME280;34313;50.780;6.084;2023-06-26T11:24:44;99683.75;;;28.19;32.68
9189;BME280;34313;50.780;6.084;2023-06-26T11:27:09;99693.28;;;28.43;32.33
9189;BME280;34313;50.780;6.084;2023-06-26T11:29:35;99695.50;;;28.67;31.44
9189;BME280;34313;50.780;6.084;2023-06-26T11:32:01;99704.03;;;28.58;31.41
9189;BME280;34313;50.780;6.084;2023-06-26T11:34:30;99697.69;;;28.51;31.21
9189;BME280;34313;50.780;6.084;2023-06-26T11:36:56;99699.53;;;28.08;31.31
9189;BME280;34313;50.780;6.084;2023-06-26T11:39:22;99681.63;;;28.07;31.42
9189;BME280;34313;50.780;6.084;2023-06-26T11:41:47;99695.50;;;27.69;31.63
9189;BME280;34313;50.780;6.084;2023-06-26T11:44:12;99705.44;;;27.62;31.51
9189;BME280;34313;50.780;6.084;2023-06-26T11:46:40;99705.25;;;27.64;31.88
9189;BME280;34313;50.780;6.084;2023-06-26T11:49:06;99697.81;;;27.72;32.05
9189;BME280;34313;50.780;6.084;2023-06-26T11:51:32;99688.19;;;27.70;32.65
9189;BME280;34313;50.780;6.084;2023-06-26T11:54:01;99699.19;;;27.90;32.29
9189;BME280;34313;50.780;6.084;2023-06-26T11:56:28;99688.00;;;27.71;31.20
9189;BME280;34313;50.780;6.084;2023-06-26T11:59:04;99712.03;;;27.53;31.03
9189;BME280;34313;50.780;6.084;2023-06-26T12:01:38;99715.63;;;27.60;31.34
9189;BME280;34313;50.780;6.084;2023-06-26T12:04:05;99711.28;;;27.66;30.61
9189;BME280;34313;50.780;6.084;2023-06-26T12:06:35;99709.56;;;28.08;30.86
9189;BME280;34313;50.780;6.084;2023-06-26T12:09:03;99719.75;;;28.06;31.00
9189;BME280;34313;50.780;6.084;2023-06-26T12:11:30;99726.19;;;28.33;31.11
9189;BME280;34313;50.780;6.084;2023-06-26T12:13:57;99712.50;;;28.13;31.21
9189;BME280;34313;50.780;6.084;2023-06-26T12:16:22;99713.94;;;28.44;30.96
9189;BME280;34313;50.780;6.084;2023-06-26T12:18:48;99724.97;;;28.42;31.72
9189;BME280;34313;50.780;6.084;2023-06-26T12:21:34;99740.66;;;28.89;30.89
9189;BME280;34313;50.780;6.084;2023-06-26T12:24:17;99743.28;;;28.69;31.22
9189;BME280;34313;50.780;6.084;2023-06-26T12:26:47;99751.66;;;28.80;30.70
9189;BME280;34313;50.780;6.084;2023-06-26T12:29:17;99748.22;;;29.00;30.32
9189;BME280;34313;50.780;6.084;2023-06-26T12:31:45;99750.38;;;29.31;29.71
9189;BME280;34313;50.780;6.084;2023-06-26T12:34:12;99755.06;;;28.96;30.99
9189;BME280;34313;50.780;6.084;2023-06-26T12:36:40;99746.72;;;28.97;30.77
9189;BME280;34313;50.780;6.084;2023-06-26T12:39:09;99745.47;;;28.93;30.90
9189;BME280;34313;50.780;6.084;2023-06-26T12:41:34;99747.84;;;28.61;30.19
9189;BME280;34313;50.780;6.084;2023-06-26T12:43:59;99737.13;;;28.18;30.33
9189;BME280;34313;50.780;6.084;2023-06-26T12:46:34;99742.19;;;28.00;30.82
9189;BME280;34313;50.780;6.084;2023-06-26T12:49:02;99747.66;;;27.57;31.09
9189;BME280;34313;50.780;6.084;2023-06-26T12:51:28;99730.81;;;27.18;32.76
9189;BME280;34313;50.780;6.084;2023-06-26T12:53:53;99736.06;;;27.05;32.54
9189;BME280;34313;50.780;6.084;2023-06-26T12:56:18;99739.56;;;27.20;31.62
9189;BME280;34313;50.780;6.084;2023-06-26T12:58:45;99738.25;;;27.31;31.79
9189;BME280;34313;50.780;6.084;2023-06-26T13:01:10;99746.22;;;27.17;32.76
9189;BME280;34313;50.780;6.084;2023-06-26T13:03:40;99747.88;;;27.19;33.37
9189;BME280;34313;50.780;6.084;2023-06-26T13:06:06;99761.59;;;27.32;33.33
9189;BME280;34313;50.780;6.084;2023-06-26T13:08:31;99760.38;;;27.20;32.60
9189;BME280;34313;50.780;6.084;2023-06-26T13:10:57;99757.66;;;26.83;32.76
9189;BME280;34313;50.780;6.084;2023-06-26T13:13:22;99763.47;;;26.65;33.16
9189;BME280;34313;50.780;6.084;2023-06-26T13:15:47;99766.22;;;26.87;32.97
9189;BME280;34313;50.780;6.084;2023-06-26T13:18:13;99770.03;;;26.92;32.82
9189;BME280;34313;50.780;6.084;2023-06-26T13:20:38;99753.25;;;26.97;32.62
9189;BME280;34313;50.780;6.084;2023-06-26T13:23:03;99755.88;;;26.90;33.07
9189;BME280;34313;50.780;6.084;2023-06-26T13:25:29;99752.06;;;26.70;33.14
9189;BME280;34313;50.780;6.084;2023-06-26T13:27:54;99756.69;;;26.91;32.86
9189;BME280;34313;50.780;6.084;2023-06-26T13:30:21;99770.22;;;26.91;32.28
9189;BME280;34313;50.780;6.084;2023-06-26T13:32:46;99759.81;;;26.73;32.30
9189;BME280;34313;50.780;6.084;2023-06-26T13:35:12;99749.03;;;26.94;30.61
9189;BME280;34313;50.780;6.084;2023-06-26T13:37:38;99753.72;;;26.86;30.75
9189;BME280;34313;50.780;6.084;2023-06-26T13:40:04;99754.69;;;26.93;30.67
9189;BME280;34313;50.780;6.084;2023-06-26T13:42:32;99759.94;;;27.16;29.49
9189;BME280;34313;50.780;6.084;2023-06-26T13:44:57;99750.63;;;27.40;29.35
9189;BME280;34313;50.780;6.084;2023-06-26T13:47:23;99764.84;;;27.49;29.59
9189;BME280;34313;50.780;6.084;2023-06-26T13:49:48;99760.56;;;27.54;30.28
9189;BME280;34313;50.780;6.084;2023-06-26T13:52:13;99750.38;;;27.57;30.01
9189;BME280;34313;50.780;6.084;2023-06-26T13:54:39;99755.09;;;27.48;29.70
9189;BME280;34313;50.780;6.084;2023-06-26T13:57:06;99759.31;;;27.57;29.73
9189;BME280;34313;50.780;6.084;2023-06-26T13:59:32;99765.09;;;27.47;28.29
9189;BME280;34313;50.780;6.084;2023-06-26T14:01:58;99757.56;;;26.91;29.02
9189;BME280;34313;50.780;6.084;2023-06-26T14:04:24;99763.84;;;26.62;29.35
9189;BME280;34313;50.780;6.084;2023-06-26T14:06:49;99767.19;;;26.79;29.42
9189;BME280;34313;50.780;6.084;2023-06-26T14:09:15;99772.03;;;27.20;29.35
9189;BME280;34313;50.780;6.084;2023-06-26T14:11:40;99765.09;;;26.96;29.29
9189;BME280;34313;50.780;6.084;2023-06-26T14:14:05;99754.44;;;27.09;29.38
9189;BME280;34313;50.780;6.084;2023-06-26T14:16:31;99766.78;;;26.97;29.79
9189;BME280;34313;50.780;6.084;2023-06-26T14:18:57;99771.88;;;27.07;30.04
9189;BME280;34313;50.780;6.084;2023-06-26T14:21:22;99778.16;;;27.07;30.64
9189;BME280;34313;50.780;6.084;2023-06-26T14:23:47;99767.94;;;26.88;30.83
9189;BME280;34313;50.780;6.084;2023-06-26T14:26:12;99779.97;;;26.70;31.77
9189;BME280;34313;50.780;6.084;2023-06-26T14:28:38;99787.59;;;26.37;31.87